Time;durP1;ratioP1;P1;durP2;ratioP2;P2;SDS_P1;SDS_P2;PMS_P1;PMS_P2;Temp;Humidity;BMP_temperature;BMP_pressure;BME280_temperature;BME280_humidity;BME280_pressure;Samples;Min_cycle;Max_cycle;Signal;HPM_P1;HPM_P2
2023/05/22 00:02:21;;;;;;;4.40;3.77;;;21.20;67.50;;;;;;5074162;28;20445;-49
2023/05/22 00:04:48;;;;;;;6.17;3.50;;;21.40;67.70;;;;;;5056159;28;20511;-50
2023/05/22 00:07:14;;;;;;;3.87;3.47;;;21.30;67.70;;;;;;5074042;28;20473;-50
2023/05/22 00:09:41;;;;;;;4.53;4.07;;;21.40;67.90;;;;;;5073676;28;20537;-50
2023/05/22 00:12:08;;;;;;;5.43;3.77;;;21.30;67.80;;;;;;5074184;28;20673;-50
2023/05/22 00:14:34;;;;;;;5.10;3.97;;;21.20;67.90;;;;;;5074237;28;20790;-49
2023/05/22 00:17:02;;;;;;;4.97;4.20;;;21.20;67.80;;;;;;5073800;28;20869;-49
2023/05/22 00:19:30;;;;;;;5.77;4.20;;;21.20;67.90;;;;;;5073515;28;20441;-50
2023/05/22 00:21:56;;;;;;;6.97;4.23;;;21.20;68.00;;;;;;5073835;28;20441;-49
2023/05/22 00:24:23;;;;;;;8.50;4.43;;;21.20;68.00;;;;;;5074346;28;20806;-50
2023/05/22 00:26:49;;;;;;;5.33;3.80;;;21.10;68.00;;;;;;5073735;28;20444;-50
2023/05/22 00:29:16;;;;;;;7.07;3.80;;;21.10;68.20;;;;;;5073213;28;20480;-49
2023/05/22 00:31:43;;;;;;;4.33;3.70;;;21.10;68.20;;;;;;5055579;28;20807;-50
2023/05/22 00:34:09;;;;;;;7.43;4.10;;;21.20;68.40;;;;;;5073434;28;20926;-51
2023/05/22 00:36:37;;;;;;;6.77;3.90;;;21.00;68.30;;;;;;5073399;28;20434;-49
2023/05/22 00:39:04;;;;;;;13.57;4.30;;;21.00;68.30;;;;;;5073031;28;20445;-50
2023/05/22 00:41:32;;;;;;;4.57;4.13;;;21.00;68.30;;;;;;5073259;28;20471;-51
2023/05/22 00:43:59;;;;;;;7.33;4.50;;;20.50;67.70;;;;;;5073243;28;20812;-49
2023/05/22 00:46:25;;;;;;;3.87;3.37;;;20.60;67.90;;;;;;5073230;28;20470;-49
2023/05/22 00:48:52;;;;;;;4.90;3.93;;;20.90;68.30;;;;;;5072800;28;20477;-49
2023/05/22 00:51:21;;;;;;;8.57;4.23;;;21.50;69.00;;;;;;5054910;28;20470;-49
2023/05/22 00:53:49;;;;;;;5.20;3.60;;;20.90;68.40;;;;;;5072532;28;20441;-48
2023/05/22 00:56:16;;;;;;;5.50;3.97;;;20.80;68.30;;;;;;5073155;28;20433;-49
2023/05/22 00:58:43;;;;;;;6.10;4.07;;;20.80;68.30;;;;;;5072553;28;20436;-49
2023/05/22 01:01:10;;;;;;;6.13;4.50;;;20.80;68.30;;;;;;5054925;28;21002;-48
2023/05/22 01:03:41;;;;;;;5.20;3.77;;;20.80;68.50;;;;;;5054976;28;20965;-47
2023/05/22 01:06:08;;;;;;;6.20;3.57;;;20.50;68.10;;;;;;5054974;28;20539;-48
2023/05/22 01:08:35;;;;;;;5.10;4.10;;;20.70;68.30;;;;;;5072363;28;20484;-48
2023/05/22 01:11:12;;;;;;;4.80;4.30;;;20.60;68.20;;;;;;5072817;28;20873;-49
2023/05/22 01:13:46;;;;;;;4.80;3.80;;;20.60;68.30;;;;;;5054771;28;20447;-48
2023/05/22 01:16:21;;;;;;;4.33;3.43;;;20.60;68.40;;;;;;5072572;28;20431;-50
2023/05/22 01:18:56;;;;;;;5.17;3.93;;;20.40;68.30;;;;;;5072259;28;20482;-50
2023/05/22 01:21:31;;;;;;;3.57;3.27;;;20.50;68.40;;;;;;5054515;28;21039;-49
2023/05/22 01:24:31;;;;;;;5.60;4.27;;;20.50;68.40;;;;;;5054507;28;20454;-49
2023/05/22 01:27:27;;;;;;;4.97;3.77;;;20.50;68.80;;;;;;5054520;28;20453;-50
2023/05/22 01:30:13;;;;;;;7.77;4.27;;;20.40;68.70;;;;;;5054115;28;20871;-48
2023/05/22 01:32:44;;;;;;;5.20;3.90;;;20.40;68.70;;;;;;5054339;28;20448;-50
2023/05/22 01:35:14;;;;;;;5.43;4.27;;;20.40;68.80;;;;;;5072250;28;20807;-50
2023/05/22 01:37:43;;;;;;;4.07;3.70;;;20.20;68.70;;;;;;5054378;28;20439;-49
2023/05/22 01:40:11;;;;;;;5.90;3.57;;;20.30;69.10;;;;;;5053862;28;20571;-49
2023/05/22 01:42:40;;;;;;;7.50;3.57;;;20.20;69.40;;;;;;5054233;28;20452;-49
2023/05/22 01:45:09;;;;;;;6.77;3.87;;;20.20;69.60;;;;;;5072126;28;20960;-49
2023/05/22 01:47:36;;;;;;;5.90;4.90;;;20.10;69.70;;;;;;5072033;28;21010;-48
2023/05/22 01:50:04;;;;;;;10.23;4.17;;;19.80;69.70;;;;;;5053631;28;20470;-49
2023/05/22 01:52:39;;;;;;;6.03;4.50;;;20.00;70.20;;;;;;5054211;28;20459;-49
2023/05/22 01:55:12;;;;;;;6.30;4.00;;;20.00;70.40;;;;;;5054251;28;20475;-49
2023/05/22 01:57:45;;;;;;;4.20;3.63;;;19.80;70.30;;;;;;5072097;28;20432;-50
2023/05/22 02:00:15;;;;;;;6.60;4.33;;;20.00;70.80;;;;;;5053656;28;20501;-48
2023/05/22 02:02:48;;;;;;;4.40;3.93;;;19.90;70.80;;;;;;5072205;28;20786;-50
2023/05/22 02:05:20;;;;;;;5.20;4.40;;;19.60;70.60;;;;;;5054086;28;20835;-50
2023/05/22 02:07:48;;;;;;;5.60;3.60;;;20.00;71.30;;;;;;5071958;28;20781;-50
2023/05/22 02:10:18;;;;;;;7.97;4.10;;;20.10;71.40;;;;;;5071448;28;20451;-50
2023/05/22 02:12:45;;;;;;;6.03;4.40;;;19.60;71.00;;;;;;5053844;28;20447;-49
2023/05/22 02:15:12;;;;;;;6.53;4.80;;;19.70;71.20;;;;;;5054182;28;20443;-50
2023/05/22 02:17:40;;;;;;;6.90;4.20;;;19.60;71.10;;;;;;5071800;28;20433;-49
2023/05/22 02:20:13;;;;;;;9.20;4.83;;;19.60;71.10;;;;;;5053523;28;20498;-50
2023/05/22 02:22:44;;;;;;;6.30;4.70;;;19.30;71.00;;;;;;5053727;28;20453;-50
2023/05/22 02:25:13;;;;;;;6.27;4.00;;;19.30;71.00;;;;;;5071696;28;20522;-51
2023/05/22 02:27:41;;;;;;;5.77;4.70;;;19.90;71.80;;;;;;5053772;28;20475;-49
2023/05/22 02:30:09;;;;;;;5.83;4.63;;;19.50;71.50;;;;;;5053353;28;20567;-49
2023/05/22 02:32:36;;;;;;;6.53;4.10;;;19.30;72.10;;;;;;5053680;28;20443;-49
2023/05/22 02:35:03;;;;;;;17.97;4.90;;;19.40;71.60;;;;;;5053654;28;20488;-49
2023/05/22 02:37:30;;;;;;;8.40;5.10;;;19.40;71.60;;;;;;5053550;28;20877;-50
2023/05/22 02:39:58;;;;;;;5.70;3.77;;;19.60;71.80;;;;;;5053193;28;20541;-49
2023/05/22 02:42:25;;;;;;;8.80;4.80;;;19.30;71.60;;;;;;5053742;28;21013;-50
2023/05/22 02:44:52;;;;;;;9.50;4.93;;;19.30;71.60;;;;;;5053569;28;20929;-50
2023/05/22 02:47:19;;;;;;;8.87;4.73;;;19.30;71.70;;;;;;5053596;28;20887;-48
2023/05/22 02:49:45;;;;;;;5.67;4.80;;;19.10;71.60;;;;;;5052936;28;20477;-51
2023/05/22 02:52:12;;;;;;;7.27;5.17;;;19.10;71.60;;;;;;5053374;28;20452;-50
2023/05/22 02:54:39;;;;;;;13.70;5.13;;;19.10;71.80;;;;;;5053343;28;20436;-49
2023/05/22 02:57:07;;;;;;;6.73;4.60;;;19.20;72.00;;;;;;5071557;28;20744;-49
2023/05/22 02:59:35;;;;;;;7.57;4.57;;;18.80;71.80;;;;;;5071118;28;20473;-49
2023/05/22 03:02:02;;;;;;;8.70;5.10;;;19.20;72.20;;;;;;5071411;28;20507;-51
2023/05/22 03:04:29;;;;;;;8.20;5.33;;;19.20;72.40;;;;;;5053792;28;20433;-49
2023/05/22 03:06:55;;;;;;;8.60;4.77;;;18.90;72.40;;;;;;5071667;28;20848;-48
2023/05/22 03:09:22;;;;;;;8.77;5.00;;;19.00;72.70;;;;;;5053088;28;20469;-50
2023/05/22 03:11:48;;;;;;;6.40;4.53;;;19.20;73.10;;;;;;5071754;28;20800;-50
2023/05/22 03:14:17;;;;;;;7.40;4.63;;;19.20;73.10;;;;;;5053613;28;20457;-49
2023/05/22 03:16:43;;;;;;;8.23;4.87;;;18.90;72.80;;;;;;5074251;28;20430;-50
2023/05/22 03:19:11;;;;;;;8.23;5.60;;;19.20;73.20;;;;;;5056518;28;20488;-49
2023/05/22 03:21:38;;;;;;;9.33;5.07;;;19.10;73.40;;;;;;5056718;28;20465;-49
2023/05/22 03:24:05;;;;;;;8.33;5.20;;;18.90;73.30;;;;;;5056696;28;20444;-50
2023/05/22 03:26:33;;;;;;;17.20;5.60;;;18.80;73.40;;;;;;5056730;28;20442;-51
2023/05/22 03:29:01;;;;;;;12.07;4.90;;;18.90;73.70;;;;;;5056400;28;20484;-50
2023/05/22 03:31:32;;;;;;;13.37;5.00;;;19.00;74.00;;;;;;5056660;28;20516;-48
2023/05/22 03:34:06;;;;;;;6.13;4.27;;;18.90;73.90;;;;;;5056951;28;20471;-49
2023/05/22 03:36:34;;;;;;;7.00;4.13;;;19.10;74.30;;;;;;5056677;28;20446;-48
2023/05/22 03:39:00;;;;;;;10.37;4.50;;;18.80;74.10;;;;;;5056172;28;20980;-49
2023/05/22 03:41:27;;;;;;;6.20;4.60;;;19.00;74.40;;;;;;5056413;28;20527;-49
2023/05/22 03:43:56;;;;;;;7.67;5.20;;;18.90;74.30;;;;;;5056417;28;20465;-49
2023/05/22 03:46:23;;;;;;;7.70;4.40;;;18.90;74.30;;;;;;5056288;28;20442;-49
2023/05/22 03:48:51;;;;;;;9.67;4.90;;;18.70;75.00;;;;;;5055909;28;20990;-48
2023/05/22 03:51:18;;;;;;;13.80;4.40;;;18.90;74.40;;;;;;5074039;28;20924;-48
2023/05/22 03:53:44;;;;;;;6.30;4.43;;;19.00;74.70;;;;;;5056263;28;20455;-48
2023/05/22 03:56:11;;;;;;;8.03;4.60;;;19.20;75.10;;;;;;5074207;28;20441;-49
2023/05/22 03:58:38;;;;;;;8.13;4.77;;;19.10;74.80;;;;;;5073821;28;20985;-48
2023/05/22 04:01:08;;;;;;;7.33;4.33;;;18.90;74.70;;;;;;5055992;28;20557;-48
2023/05/22 04:03:35;;;;;;;6.80;4.87;;;19.10;74.80;;;;;;5056163;28;20474;-48
2023/05/22 04:06:06;;;;;;;9.60;4.43;;;18.80;74.40;;;;;;5055881;28;20449;-49
2023/05/22 04:08:32;;;;;;;4.87;4.43;;;19.30;74.80;;;;;;5073498;28;20988;-49
2023/05/22 04:11:00;;;;;;;6.47;5.10;;;19.30;74.70;;;;;;5073769;28;20445;-49
2023/05/22 04:13:27;;;;;;;9.80;5.47;;;19.00;74.20;;;;;;5055710;28;20449;-50
2023/05/22 04:15:55;;;;;;;7.37;4.63;;;19.30;74.30;;;;;;5055453;28;20946;-50
2023/05/22 04:18:22;;;;;;;5.83;4.77;;;19.20;74.00;;;;;;5073216;28;20441;-49
2023/05/22 04:20:50;;;;;;;8.27;5.03;;;19.60;74.10;;;;;;5073641;28;20900;-49
2023/05/22 04:23:20;;;;;;;10.90;4.87;;;19.50;73.70;;;;;;5054934;28;20499;-49
2023/05/22 04:25:47;;;;;;;13.57;6.93;;;19.50;73.70;;;;;;5055530;28;20417;-49
2023/05/22 04:28:16;;;;;;;8.23;4.80;;;19.80;73.90;;;;;;5072234;28;20860;-50
2023/05/22 04:30:43;;;;;;;9.40;4.33;;;19.80;73.60;;;;;;5073496;28;20875;-49
2023/05/22 04:33:09;;;;;;;7.73;4.90;;;19.90;73.50;;;;;;5073276;28;20455;-49
2023/05/22 04:35:36;;;;;;;5.83;4.17;;;20.10;73.60;;;;;;5073510;28;20846;-48
2023/05/22 04:38:05;;;;;;;10.07;5.33;;;19.70;72.80;;;;;;5055402;28;20448;-49
2023/05/22 04:40:33;;;;;;;9.33;5.50;;;20.10;73.00;;;;;;5055015;28;20995;-49
2023/05/22 04:43:00;;;;;;;8.23;4.50;;;20.30;73.30;;;;;;5073371;28;20442;-49
2023/05/22 04:45:27;;;;;;;13.70;5.40;;;20.00;72.90;;;;;;5073330;28;20472;-49
2023/05/22 04:47:58;;;;;;;10.60;6.47;;;20.10;73.00;;;;;;5054819;28;20534;-49
2023/05/22 04:50:25;;;;;;;10.60;5.57;;;20.20;72.90;;;;;;5054473;28;20452;-48
2023/05/22 04:52:53;;;;;;;6.47;5.13;;;20.30;72.80;;;;;;5054869;28;20418;-50
2023/05/22 04:55:21;;;;;;;12.23;4.97;;;19.90;72.10;;;;;;5054963;28;20464;-49
2023/05/22 04:57:49;;;;;;;8.90;5.50;;;20.40;72.70;;;;;;5073048;28;20448;-49
2023/05/22 05:00:16;;;;;;;8.70;5.50;;;20.50;72.60;;;;;;5053839;28;20470;-48
2023/05/22 05:02:44;;;;;;;7.00;4.50;;;20.50;72.50;;;;;;5054642;28;20961;-48
2023/05/22 05:05:11;;;;;;;9.40;5.77;;;20.60;72.40;;;;;;5054775;28;20974;-49
2023/05/22 05:07:38;;;;;;;8.13;5.00;;;20.70;72.20;;;;;;5054732;28;20442;-48
2023/05/22 05:10:06;;;;;;;11.73;5.43;;;20.60;72.20;;;;;;5054133;28;21000;-49
2023/05/22 05:12:32;;;;;;;8.13;5.10;;;20.70;72.10;;;;;;5054519;28;20966;-49
2023/05/22 05:15:02;;;;;;;8.87;4.80;;;20.80;72.00;;;;;;5054399;28;20880;-50
2023/05/22 05:17:28;;;;;;;6.90;5.30;;;20.70;72.10;;;;;;5054657;28;20452;-48
2023/05/22 05:19:55;;;;;;;9.33;5.77;;;20.60;72.30;;;;;;5071931;28;20461;-49
2023/05/22 05:22:22;;;;;;;10.70;4.83;;;20.50;72.40;;;;;;5054525;28;20450;-49
2023/05/22 05:24:48;;;;;;;6.30;5.40;;;20.30;72.50;;;;;;5054186;28;20456;-47
2023/05/22 05:27:15;;;;;;;6.93;6.20;;;20.50;72.70;;;;;;5054286;28;20537;-50
2023/05/22 05:29:42;;;;;;;6.43;4.87;;;20.40;72.80;;;;;;5072296;28;20483;-50
2023/05/22 05:32:18;;;;;;;15.40;6.47;;;20.40;73.00;;;;;;5054410;28;20447;-49
2023/05/22 05:34:55;;;;;;;6.30;4.70;;;20.00;72.80;;;;;;5072280;28;20430;-49
2023/05/22 05:37:44;;;;;;;5.50;4.30;;;20.80;73.90;;;;;;5053447;28;20447;-49
2023/05/22 05:40:13;;;;;;;7.80;5.30;;;20.20;73.90;;;;;;5053303;28;20510;-49
2023/05/22 05:42:45;;;;;;;8.30;5.37;;;20.30;74.00;;;;;;5053661;28;20446;-49
2023/05/22 05:45:13;;;;;;;11.03;5.97;;;20.40;74.10;;;;;;5053269;28;20448;-51
2023/05/22 05:47:42;;;;;;;7.53;5.40;;;20.20;73.90;;;;;;5053574;28;20451;-49
2023/05/22 05:50:09;;;;;;;6.20;5.13;;;20.30;73.90;;;;;;5053555;28;20488;-51
2023/05/22 05:52:37;;;;;;;8.57;5.00;;;20.60;73.90;;;;;;5053677;28;20557;-48
2023/05/22 05:55:10;;;;;;;8.03;5.63;;;20.80;73.90;;;;;;5054085;28;20451;-49
2023/05/22 05:57:37;;;;;;;12.27;6.20;;;21.00;73.70;;;;;;5053163;28;20464;-48
2023/05/22 06:00:10;;;;;;;7.43;4.50;;;21.10;73.30;;;;;;5053293;28;20554;-51
2023/05/22 06:02:44;;;;;;;7.43;5.03;;;21.20;72.90;;;;;;5072049;28;20425;-50
2023/05/22 06:05:22;;;;;;;7.17;5.17;;;21.30;72.70;;;;;;5053542;28;21000;-51
2023/05/22 06:07:57;;;;;;;10.60;5.70;;;21.20;72.80;;;;;;5053082;28;20457;-50
2023/05/22 06:10:24;;;;;;;8.60;5.50;;;21.20;72.70;;;;;;5052952;28;20488;-50
2023/05/22 06:13:00;;;;;;;10.20;6.10;;;21.30;72.70;;;;;;5053668;28;20486;-50
2023/05/22 06:15:27;;;;;;;7.67;5.60;;;21.50;72.80;;;;;;5053252;28;20453;-50
2023/05/22 06:17:55;;;;;;;7.60;6.03;;;21.70;72.50;;;;;;5053224;28;20472;-49
2023/05/22 06:20:23;;;;;;;8.60;6.63;;;21.90;72.00;;;;;;5052286;28;21021;-49
2023/05/22 06:22:50;;;;;;;13.20;5.13;;;22.00;71.80;;;;;;5053076;28;20452;-50
2023/05/22 06:25:17;;;;;;;10.23;6.03;;;22.00;71.80;;;;;;5053133;28;20549;-50
2023/05/22 06:27:44;;;;;;;6.67;5.20;;;22.20;71.70;;;;;;5052723;28;20453;-51
2023/05/22 06:30:12;;;;;;;4.97;4.53;;;22.20;71.50;;;;;;5071001;28;20487;-51
2023/05/22 06:32:39;;;;;;;6.33;5.30;;;22.30;71.30;;;;;;5052808;28;20448;-48
2023/05/22 06:35:10;;;;;;;10.53;6.47;;;22.20;71.30;;;;;;5052509;28;20465;-49
2023/05/22 06:37:38;;;;;;;6.03;5.20;;;22.20;71.10;;;;;;5053275;28;20537;-49
2023/05/22 06:40:07;;;;;;;8.33;5.77;;;22.20;71.10;;;;;;5052302;28;20530;-49
2023/05/22 06:42:46;;;;;;;9.73;5.73;;;22.30;71.30;;;;;;5052523;28;20531;-51
2023/05/22 06:45:28;;;;;;;8.23;5.80;;;22.40;71.30;;;;;;5070867;28;20460;-50
2023/05/22 06:48:14;;;;;;;9.47;5.27;;;22.40;71.10;;;;;;5052937;28;20571;-48
2023/05/22 06:50:56;;;;;;;6.80;5.60;;;22.60;71.00;;;;;;5054039;28;20991;-48
2023/05/22 06:53:24;;;;;;;9.13;5.43;;;22.70;70.80;;;;;;5075082;28;20494;-48
2023/05/22 06:55:51;;;;;;;8.80;6.30;;;22.70;70.60;;;;;;5056670;28;20462;-48
2023/05/22 06:58:26;;;;;;;12.00;6.17;;;22.80;70.80;;;;;;5056370;28;20461;-48
2023/05/22 07:00:54;;;;;;;7.67;5.43;;;22.90;70.70;;;;;;5056720;28;20527;-48
2023/05/22 07:03:26;;;;;;;7.93;6.40;;;23.00;70.70;;;;;;5056611;28;20501;-49
2023/05/22 07:06:23;;;;;;;8.90;5.60;;;23.00;70.80;;;;;;5056527;28;20447;-49
2023/05/22 07:08:50;;;;;;;7.70;5.87;;;22.90;71.00;;;;;;5056060;28;20493;-49
2023/05/22 07:11:16;;;;;;;12.13;6.60;;;23.00;71.00;;;;;;5056553;28;20539;-49
2023/05/22 07:13:43;;;;;;;10.03;5.63;;;23.00;70.90;;;;;;5056840;28;20451;-50
2023/05/22 07:16:10;;;;;;;6.33;5.60;;;23.10;70.90;;;;;;5056474;28;20533;-51
2023/05/22 07:18:38;;;;;;;7.90;6.27;;;23.10;70.70;;;;;;5056174;28;20451;-48
2023/05/22 07:21:05;;;;;;;7.07;6.33;;;23.20;70.70;;;;;;5056172;28;20538;-49
2023/05/22 07:23:33;;;;;;;9.13;5.60;;;23.20;70.90;;;;;;5056453;28;20469;-49
2023/05/22 07:26:00;;;;;;;8.70;6.07;;;23.20;71.30;;;;;;5056562;28;20967;-48
2023/05/22 07:28:33;;;;;;;8.90;5.60;;;23.10;71.30;;;;;;5056093;28;20449;-49
2023/05/22 07:31:08;;;;;;;13.93;6.60;;;23.10;71.80;;;;;;5055924;28;20835;-50
2023/05/22 07:33:35;;;;;;;12.67;6.60;;;23.00;71.90;;;;;;5055467;28;20447;-49
2023/05/22 07:36:01;;;;;;;9.60;5.47;;;23.00;71.80;;;;;;5056232;28;20537;-49
2023/05/22 07:38:28;;;;;;;12.43;6.07;;;22.80;72.00;;;;;;5055684;28;20450;-50
2023/05/22 07:41:03;;;;;;;6.57;5.37;;;22.80;72.30;;;;;;5056194;28;20976;-50
2023/05/22 07:43:30;;;;;;;7.67;6.20;;;22.70;72.30;;;;;;5055633;28;20452;-49
2023/05/22 07:45:58;;;;;;;11.63;5.80;;;22.70;72.80;;;;;;5055746;28;21110;-48
2023/05/22 07:48:29;;;;;;;9.50;5.67;;;22.70;72.80;;;;;;5055540;28;20877;-49
2023/05/22 07:50:56;;;;;;;14.00;5.50;;;22.80;72.90;;;;;;5055765;28;20576;-48
2023/05/22 07:53:23;;;;;;;9.13;6.00;;;22.80;73.00;;;;;;5074117;28;20429;-50
2023/05/22 07:55:52;;;;;;;7.53;5.77;;;22.90;72.80;;;;;;5055484;28;20838;-49
2023/05/22 07:58:22;;;;;;;7.70;5.40;;;23.00;72.90;;;;;;5055104;28;20479;-49
2023/05/22 08:00:49;;;;;;;9.37;6.10;;;23.20;73.10;;;;;;5055483;28;20514;-49
2023/05/22 08:03:16;;;;;;;10.10;5.37;;;23.10;72.50;;;;;;5073678;28;20914;-49
2023/05/22 08:05:43;;;;;;;9.43;5.60;;;23.20;72.40;;;;;;5073777;28;20437;-51
2023/05/22 08:08:10;;;;;;;10.83;6.43;;;23.20;72.10;;;;;;5073092;28;20438;-49
2023/05/22 08:10:37;;;;;;;7.87;6.10;;;23.20;72.10;;;;;;5073261;28;20491;-50
2023/05/22 08:13:05;;;;;;;8.40;5.93;;;23.30;72.00;;;;;;5073531;28;20439;-49
2023/05/22 08:15:33;;;;;;;7.47;5.10;;;23.30;71.80;;;;;;5073646;28;20960;-50
2023/05/22 08:18:00;;;;;;;6.87;4.80;;;23.40;72.00;;;;;;5073399;28;20473;-50
2023/05/22 08:20:27;;;;;;;6.93;5.17;;;23.50;71.40;;;;;;5073050;28;20478;-47
2023/05/22 08:22:54;;;;;;;9.60;5.60;;;23.60;70.60;;;;;;5073214;28;20532;-50
2023/05/22 08:25:21;;;;;;;4.70;4.30;;;23.60;70.90;;;;;;5073266;28;20452;-49
2023/05/22 08:27:47;;;;;;;7.57;6.30;;;23.70;70.60;;;;;;5072886;28;20424;-50
2023/05/22 08:30:14;;;;;;;11.13;5.00;;;23.80;70.90;;;;;;5072528;28;20480;-50
2023/05/22 08:32:42;;;;;;;10.73;5.10;;;23.80;70.70;;;;;;5073101;28;20437;-47
2023/05/22 08:35:09;;;;;;;6.07;4.90;;;23.80;70.00;;;;;;5054991;28;20446;-48
2023/05/22 08:37:36;;;;;;;8.77;5.00;;;23.90;70.00;;;;;;5073193;28;20436;-49
2023/05/22 08:40:04;;;;;;;8.87;5.90;;;23.90;69.90;;;;;;5072424;28;20460;-50
2023/05/22 08:42:31;;;;;;;7.37;4.60;;;23.90;69.80;;;;;;5072828;28;20800;-50
2023/05/22 08:44:59;;;;;;;5.13;4.57;;;24.00;69.50;;;;;;5072982;28;20453;-49
2023/05/22 08:47:27;;;;;;;11.53;5.43;;;24.00;68.90;;;;;;5072870;28;20531;-49
2023/05/22 08:49:57;;;;;;;10.13;4.57;;;24.10;68.50;;;;;;5072054;28;20751;-48
2023/05/22 08:52:29;;;;;;;11.47;4.90;;;24.10;68.30;;;;;;5072590;28;20446;-48
2023/05/22 08:54:57;;;;;;;10.23;4.40;;;24.20;68.20;;;;;;5072871;28;20810;-51
2023/05/22 08:57:24;;;;;;;6.87;4.67;;;24.20;68.20;;;;;;5072482;28;20429;-51
2023/05/22 08:59:52;;;;;;;8.00;4.67;;;24.30;68.50;;;;;;5071997;28;20457;-47
2023/05/22 09:02:19;;;;;;;7.13;5.20;;;24.30;68.20;;;;;;5072363;28;20422;-49
2023/05/22 09:04:46;;;;;;;6.00;4.80;;;24.40;68.50;;;;;;5072684;28;20441;-48
2023/05/22 09:07:14;;;;;;;10.20;4.53;;;24.50;68.60;;;;;;5072475;28;20432;-49
2023/05/22 09:09:41;;;;;;;9.43;4.67;;;24.60;67.90;;;;;;5071881;28;20994;-49
2023/05/22 09:12:09;;;;;;;6.47;4.23;;;24.60;67.70;;;;;;5071998;28;20981;-48
2023/05/22 09:14:40;;;;;;;9.10;4.60;;;24.70;67.00;;;;;;5071829;28;20942;-48
2023/05/22 09:17:08;;;;;;;10.53;4.53;;;24.80;66.70;;;;;;5054139;28;20449;-49
2023/05/22 09:19:34;;;;;;;7.93;4.63;;;24.90;66.80;;;;;;5071478;28;20454;-50
2023/05/22 09:22:03;;;;;;;5.60;4.80;;;24.90;65.60;;;;;;5072239;28;20437;-49
2023/05/22 09:24:33;;;;;;;19.20;4.50;;;25.00;65.30;;;;;;5071804;28;20444;-49
2023/05/22 09:27:02;;;;;;;10.10;4.60;;;25.10;65.20;;;;;;5072087;28;20943;-49
2023/05/22 09:29:30;;;;;;;7.53;4.30;;;25.20;64.80;;;;;;5071665;28;20524;-49
2023/05/22 09:31:58;;;;;;;9.50;4.37;;;25.20;64.70;;;;;;5071726;28;20513;-48
2023/05/22 09:34:28;;;;;;;6.80;4.10;;;25.30;64.80;;;;;;5071776;28;20430;-48
2023/05/22 09:37:02;;;;;;;7.53;4.57;;;25.40;64.50;;;;;;5071299;28;20445;-50
2023/05/22 09:39:39;;;;;;;8.67;4.23;;;25.40;64.20;;;;;;5071131;28;20457;-49
2023/05/22 09:42:05;;;;;;;6.60;3.90;;;25.50;64.00;;;;;;5071527;28;20483;-49
2023/05/22 09:44:32;;;;;;;4.87;4.00;;;25.50;64.10;;;;;;5071555;28;20434;-49
2023/05/22 09:46:59;;;;;;;7.03;4.47;;;25.50;63.90;;;;;;5071530;28;20445;-49
2023/05/22 09:49:25;;;;;;;9.73;4.10;;;25.50;64.00;;;;;;5070422;28;20972;-50
2023/05/22 09:51:55;;;;;;;8.50;4.27;;;25.50;63.40;;;;;;5071705;28;20481;-50
2023/05/22 09:54:25;;;;;;;7.60;4.33;;;25.50;63.20;;;;;;5071392;28;20438;-50
2023/05/22 09:56:55;;;;;;;5.00;4.50;;;25.50;63.00;;;;;;5071445;28;20433;-49
2023/05/22 09:59:25;;;;;;;5.60;4.40;;;25.50;63.30;;;;;;5070960;28;20431;-51
2023/05/22 10:01:53;;;;;;;5.70;4.60;;;25.50;63.40;;;;;;5071760;28;20430;-49
2023/05/22 10:04:23;;;;;;;7.67;4.50;;;25.50;63.40;;;;;;5071559;28;20457;-50
2023/05/22 10:06:52;;;;;;;8.77;5.10;;;25.50;63.30;;;;;;5071547;28;20430;-49
2023/05/22 10:09:23;;;;;;;8.10;5.20;;;25.60;63.40;;;;;;5071067;28;20434;-49
2023/05/22 10:11:55;;;;;;;5.80;4.10;;;25.70;62.80;;;;;;5071319;28;20493;-50
2023/05/22 10:14:23;;;;;;;5.50;4.43;;;25.70;62.70;;;;;;5071548;28;20937;-50
2023/05/22 10:16:50;;;;;;;16.67;4.70;;;25.70;62.20;;;;;;5071310;28;20430;-51
2023/05/22 10:19:17;;;;;;;6.10;4.00;;;25.70;62.10;;;;;;5070827;28;20457;-48
2023/05/22 10:21:46;;;;;;;6.27;5.03;;;25.80;62.10;;;;;;5071405;28;20469;-50
2023/05/22 10:24:13;;;;;;;7.53;4.10;;;25.80;61.90;;;;;;5053311;28;20445;-49
2023/05/22 10:26:42;;;;;;;8.50;5.60;;;25.80;61.80;;;;;;5074541;28;20536;-52
2023/05/22 10:29:14;;;;;;;6.20;5.00;;;25.80;61.90;;;;;;5057067;28;20433;-50
2023/05/22 10:31:48;;;;;;;5.20;4.10;;;25.80;61.90;;;;;;5075424;28;20477;-49
2023/05/22 10:34:34;;;;;;;8.17;4.20;;;25.70;61.40;;;;;;5057441;28;20469;-49
2023/05/22 10:37:16;;;;;;;12.73;4.03;;;25.60;61.40;;;;;;5075279;28;20418;-50
2023/05/22 10:39:54;;;;;;;10.13;4.87;;;25.60;61.70;;;;;;5074834;28;20446;-49
2023/05/22 10:42:21;;;;;;;7.50;4.07;;;25.60;61.70;;;;;;5075157;28;20433;-50
2023/05/22 10:44:48;;;;;;;4.30;3.67;;;25.60;61.40;;;;;;5075024;28;20427;-49
2023/05/22 10:47:15;;;;;;;4.20;3.80;;;25.60;61.00;;;;;;5074769;28;20469;-49
2023/05/22 10:49:44;;;;;;;9.30;4.47;;;25.70;60.90;;;;;;5074237;28;20468;-50
2023/05/22 10:52:13;;;;;;;7.27;4.27;;;25.70;60.60;;;;;;5075151;28;20477;-50
2023/05/22 10:54:43;;;;;;;8.20;4.57;;;25.80;60.30;;;;;;5074919;28;20792;-48
2023/05/22 10:57:11;;;;;;;8.50;4.00;;;25.80;59.60;;;;;;5075063;28;20533;-49
2023/05/22 10:59:38;;;;;;;6.07;3.93;;;25.80;59.30;;;;;;5074696;28;20957;-50
2023/05/22 11:02:19;;;;;;;4.90;4.00;;;25.80;59.50;;;;;;5074981;28;20862;-49
2023/05/22 11:04:46;;;;;;;6.40;4.53;;;25.90;59.00;;;;;;5075011;28;20429;-49
2023/05/22 11:07:13;;;;;;;5.10;3.87;;;25.80;59.30;;;;;;5074663;28;20434;-50
2023/05/22 11:09:42;;;;;;;8.07;4.60;;;25.80;58.90;;;;;;5074230;28;20948;-49
2023/05/22 11:12:18;;;;;;;5.30;4.10;;;25.80;58.80;;;;;;5074608;28;20618;-50
2023/05/22 11:14:52;;;;;;;8.30;3.77;;;25.80;58.50;;;;;;5074743;28;20413;-49
2023/05/22 11:17:23;;;;;;;4.20;3.80;;;25.80;57.80;;;;;;5074598;28;20459;-49
2023/05/22 11:19:58;;;;;;;9.83;3.60;;;25.80;58.00;;;;;;5074452;28;20536;-50
2023/05/22 11:22:33;;;;;;;9.10;3.80;;;25.80;57.20;;;;;;5074272;28;20478;-50
2023/05/22 11:25:03;;;;;;;6.80;3.93;;;25.80;57.00;;;;;;5074444;28;20846;-48
2023/05/22 11:27:30;;;;;;;7.17;3.80;;;25.70;56.90;;;;;;5074496;28;20442;-50
2023/05/22 11:29:58;;;;;;;5.63;3.90;;;25.70;57.10;;;;;;5073889;28;20541;-49
2023/05/22 11:32:26;;;;;;;4.60;3.43;;;25.60;57.20;;;;;;5074007;28;20491;-50
2023/05/22 11:34:54;;;;;;;4.63;3.50;;;25.60;56.90;;;;;;5074097;28;20449;-50
2023/05/22 11:37:21;;;;;;;4.57;3.53;;;25.60;56.50;;;;;;5055251;28;20448;-49
2023/05/22 11:39:55;;;;;;;4.67;3.37;;;25.70;56.50;;;;;;5073546;28;20453;-49
2023/05/22 11:42:22;;;;;;;10.40;4.20;;;25.70;56.00;;;;;;5056051;28;20441;-49
2023/05/22 11:44:49;;;;;;;8.23;3.33;;;25.70;55.70;;;;;;5055525;28;20755;-49
2023/05/22 11:47:16;;;;;;;8.20;4.00;;;25.80;55.50;;;;;;5055691;28;20966;-49
2023/05/22 11:49:47;;;;;;;9.30;4.00;;;25.80;54.80;;;;;;5074091;28;21000;-49
2023/05/22 11:52:16;;;;;;;4.90;3.40;;;25.50;54.80;;;;;;5073741;28;20481;-49
2023/05/22 11:54:46;;;;;;;6.27;3.80;;;25.90;54.70;;;;;;5055488;28;20442;-49
2023/05/22 11:57:13;;;;;;;7.37;3.40;;;25.90;54.90;;;;;;5055903;28;20464;-50
2023/05/22 11:59:45;;;;;;;6.33;3.83;;;25.90;54.40;;;;;;5073490;28;20591;-50
2023/05/22 12:02:13;;;;;;;6.70;3.80;;;25.90;54.00;;;;;;5055853;28;20544;-50
2023/05/22 12:04:40;;;;;;;6.13;3.17;;;25.90;54.20;;;;;;5073898;28;20421;-50
2023/05/22 12:07:09;;;;;;;6.10;3.27;;;26.00;54.10;;;;;;5055874;28;20468;-48
2023/05/22 12:09:39;;;;;;;5.20;3.50;;;25.90;53.80;;;;;;5073293;28;20552;-49
2023/05/22 12:12:10;;;;;;;3.87;3.37;;;25.90;53.80;;;;;;5073361;28;20457;-48
2023/05/22 12:14:37;;;;;;;7.27;3.40;;;25.90;53.10;;;;;;5073741;28;20528;-50
2023/05/22 12:17:05;;;;;;;4.83;4.00;;;25.80;53.50;;;;;;5073211;28;20468;-50
2023/05/22 12:19:32;;;;;;;4.97;3.20;;;25.80;53.50;;;;;;5054992;28;20484;-48
2023/05/22 12:21:58;;;;;;;17.90;4.10;;;26.00;53.60;;;;;;5073563;28;20452;-49
2023/05/22 12:24:36;;;;;;;11.63;3.07;;;25.90;53.40;;;;;;5073275;28;20446;-50
2023/05/22 12:27:08;;;;;;;8.10;3.57;;;25.90;52.90;;;;;;5073057;28;20461;-50
2023/05/22 12:29:35;;;;;;;4.30;3.43;;;25.90;52.60;;;;;;5055025;28;20556;-50
2023/05/22 12:32:03;;;;;;;5.20;3.40;;;25.90;52.10;;;;;;5072996;28;20543;-50
2023/05/22 12:34:33;;;;;;;8.20;3.70;;;26.00;51.90;;;;;;5073223;28;20436;-51
2023/05/22 12:37:00;;;;;;;6.03;3.53;;;26.00;51.70;;;;;;5071925;28;20433;-50
2023/05/22 12:39:28;;;;;;;7.57;3.87;;;26.40;51.10;;;;;;5072433;28;20199;-50
2023/05/22 12:41:55;;;;;;;5.83;3.70;;;26.30;51.40;;;;;;5072791;28;20529;-50
2023/05/22 12:44:22;;;;;;;4.73;2.80;;;26.20;51.50;;;;;;5054759;28;20452;-49
2023/05/22 12:46:48;;;;;;;8.60;3.33;;;26.20;51.70;;;;;;5072601;28;20516;-49
2023/05/22 12:49:15;;;;;;;5.40;3.63;;;26.00;51.20;;;;;;5071079;28;20438;-49
2023/05/22 12:51:41;;;;;;;10.50;3.80;;;26.20;50.90;;;;;;5072171;28;20502;-49
2023/05/22 12:54:08;;;;;;;13.90;3.93;;;26.00;50.90;;;;;;5071936;28;20438;-49
2023/05/22 12:56:36;;;;;;;4.50;3.10;;;26.20;51.00;;;;;;5054351;28;20456;-49